createdAt,value
2023-12-07T00:00:41.132Z,1012.42
2023-12-07T00:01:41.305Z,1012.42
2023-12-07T00:02:41.180Z,1012.37
2023-12-07T00:03:41.205Z,1012.38
2023-12-07T00:04:41.248Z,1012.41
2023-12-07T00:05:41.290Z,1012.37
2023-12-07T00:06:41.283Z,1012.42
2023-12-07T00:07:41.338Z,1012.41
2023-12-07T00:08:41.330Z,1012.45
2023-12-07T00:09:41.356Z,1012.47
2023-12-07T00:10:41.413Z,1012.46
2023-12-07T00:11:41.408Z,1012.48
2023-12-07T00:12:41.450Z,1012.45
2023-12-07T00:13:41.459Z,1012.45
2023-12-07T00:14:41.488Z,1012.41
2023-12-07T00:15:41.510Z,1012.43
2023-12-07T00:16:41.532Z,1012.39
2023-12-07T00:17:41.569Z,1012.36
2023-12-07T00:18:41.619Z,1012.38
2023-12-07T00:19:41.650Z,1012.39
2023-12-07T00:20:41.632Z,1012.37
2023-12-07T00:21:41.661Z,1012.39
2023-12-07T00:22:41.719Z,1012.38
2023-12-07T00:23:41.709Z,1012.41
2023-12-07T00:24:41.752Z,1012.41
2023-12-07T00:25:41.753Z,1012.41
2023-12-07T00:26:41.779Z,1012.39
2023-12-07T00:27:41.801Z,1012.40
2023-12-07T00:28:41.851Z,1012.40
2023-12-07T00:29:41.860Z,1012.40
2023-12-07T00:30:41.881Z,1012.38
2023-12-07T00:31:41.908Z,1012.43
2023-12-07T00:32:41.931Z,1012.44
2023-12-07T00:33:41.968Z,1012.45
2023-12-07T00:34:42.135Z,1012.45
2023-12-07T00:35:42.009Z,1012.47
2023-12-07T00:36:42.089Z,1012.44
2023-12-07T00:37:42.090Z,1012.46
2023-12-07T00:38:42.084Z,1012.49
2023-12-07T00:39:42.108Z,1012.49
2023-12-07T00:40:42.137Z,1012.51
2023-12-07T00:41:42.182Z,1012.51
2023-12-07T00:42:42.180Z,1012.48
2023-12-07T00:43:42.206Z,1012.50
2023-12-07T00:44:42.253Z,1012.50
2023-12-07T00:45:42.257Z,1012.48
2023-12-07T00:46:42.281Z,1012.52
2023-12-07T00:47:42.312Z,1012.48
2023-12-07T00:48:42.377Z,1012.50
2023-12-07T00:49:42.421Z,1012.46
2023-12-07T00:50:42.380Z,1012.49
2023-12-07T00:51:42.408Z,1012.51
2023-12-07T00:52:42.486Z,1012.49
2023-12-07T00:53:42.500Z,1012.52
2023-12-07T00:54:42.499Z,1012.58
2023-12-07T00:55:42.539Z,1012.57
2023-12-07T00:56:42.534Z,1012.54
2023-12-07T00:57:42.592Z,1012.58
2023-12-07T00:58:42.738Z,1012.61
2023-12-07T00:59:42.627Z,1012.62
2023-12-07T01:00:42.704Z,1012.59
2023-12-07T01:01:42.657Z,1012.60
2023-12-07T01:02:42.713Z,1012.57
2023-12-07T01:03:42.753Z,1012.57
2023-12-07T01:04:42.941Z,1012.59
2023-12-07T01:05:42.951Z,1012.59
2023-12-07T01:06:42.929Z,1012.62
2023-12-07T01:07:42.921Z,1012.67
2023-12-07T01:08:42.851Z,1012.72
2023-12-07T01:09:42.861Z,1012.69
2023-12-07T01:10:42.885Z,1012.74
2023-12-07T01:11:42.912Z,1012.75
2023-12-07T01:12:42.930Z,1012.82
2023-12-07T01:13:42.967Z,1012.79
2023-12-07T01:14:42.980Z,1012.80
2023-12-07T01:15:43.009Z,1012.82
2023-12-07T01:16:43.028Z,1012.84
2023-12-07T01:17:43.071Z,1012.85
2023-12-07T01:18:43.104Z,1012.86
2023-12-07T01:19:43.117Z,1012.88
2023-12-07T01:20:43.130Z,1012.92
2023-12-07T01:21:43.155Z,1012.92
2023-12-07T01:22:43.234Z,1012.91
2023-12-07T01:23:43.245Z,1012.96
2023-12-07T01:24:43.276Z,1012.96
2023-12-07T01:25:43.296Z,1012.96
2023-12-07T01:26:43.280Z,1012.95
2023-12-07T01:27:43.307Z,1012.93
2023-12-07T01:28:43.352Z,1012.93
2023-12-07T01:29:43.398Z,1012.98
2023-12-07T01:30:43.384Z,1013.00
2023-12-07T01:31:43.409Z,1013.03
2023-12-07T01:32:43.432Z,1013.01
2023-12-07T01:33:43.481Z,1013.05
2023-12-07T01:34:43.571Z,1013.07
2023-12-07T01:35:43.507Z,1013.08
2023-12-07T01:36:43.526Z,1013.10
2023-12-07T01:37:43.557Z,1013.09
2023-12-07T01:38:43.578Z,1013.16
2023-12-07T01:39:43.605Z,1013.17
2023-12-07T01:40:46.105Z,1013.11
2023-12-07T01:41:43.656Z,1013.15
2023-12-07T01:42:43.694Z,1013.18
2023-12-07T01:43:43.710Z,1013.20
2023-12-07T01:44:43.726Z,1013.16
2023-12-07T01:45:43.759Z,1013.23
2023-12-07T01:46:43.791Z,1013.20
2023-12-07T01:47:43.886Z,1013.22
2023-12-07T01:48:43.905Z,1013.21
2023-12-07T01:49:43.908Z,1013.23
2023-12-07T01:50:43.879Z,1013.23
2023-12-07T01:51:43.904Z,1013.26
2023-12-07T01:52:43.976Z,1013.26
2023-12-07T01:53:43.958Z,1013.25
2023-12-07T01:54:43.980Z,1013.27
2023-12-07T01:55:44.050Z,1013.28
2023-12-07T01:56:44.035Z,1013.25
2023-12-07T01:57:44.053Z,1013.27
2023-12-07T01:58:44.114Z,1013.24
2023-12-07T01:59:44.105Z,1013.22
2023-12-07T02:00:44.146Z,1013.22
2023-12-07T02:01:44.255Z,1013.22
2023-12-07T02:02:44.176Z,1013.21
2023-12-07T02:03:44.257Z,1013.24
2023-12-07T02:04:44.303Z,1013.22
2023-12-07T02:05:44.293Z,1013.26
2023-12-07T02:06:44.281Z,1013.22
2023-12-07T02:07:44.367Z,1013.29
2023-12-07T02:08:44.340Z,1013.26
2023-12-07T02:09:44.355Z,1013.31
2023-12-07T02:10:44.433Z,1013.31
2023-12-07T02:11:44.408Z,1013.33
2023-12-07T02:12:44.431Z,1013.30
2023-12-07T02:13:44.458Z,1013.31
2023-12-07T02:14:44.490Z,1013.30
2023-12-07T02:15:44.501Z,1013.30
2023-12-07T02:16:44.532Z,1013.32
2023-12-07T02:17:44.607Z,1013.28
2023-12-07T02:18:44.593Z,1013.28
2023-12-07T02:19:44.695Z,1013.27
2023-12-07T02:20:44.629Z,1013.29
2023-12-07T02:21:44.655Z,1013.27
2023-12-07T02:22:44.787Z,1013.28
2023-12-07T02:23:49.238Z,1013.25
2023-12-07T02:24:44.726Z,1013.24
2023-12-07T02:25:44.792Z,1013.26
2023-12-07T02:26:44.787Z,1013.24
2023-12-07T02:27:44.814Z,1013.22
2023-12-07T02:28:44.832Z,1013.22
2023-12-07T02:29:44.851Z,1013.24
2023-12-07T02:30:44.908Z,1013.23
2023-12-07T02:31:44.906Z,1013.26
2023-12-07T02:32:45.001Z,1013.28
2023-12-07T02:33:45.037Z,1013.32
2023-12-07T02:34:44.995Z,1013.28
2023-12-07T02:35:45.018Z,1013.33
2023-12-07T02:36:45.057Z,1013.30
2023-12-07T02:37:45.056Z,1013.38
2023-12-07T02:38:45.078Z,1013.38
2023-12-07T02:39:45.105Z,1013.39
2023-12-07T02:40:45.154Z,1013.38
2023-12-07T02:41:45.152Z,1013.39
2023-12-07T02:42:45.186Z,1013.41
2023-12-07T02:43:45.203Z,1013.42
2023-12-07T02:44:45.231Z,1013.39
2023-12-07T02:45:45.260Z,1013.42
2023-12-07T02:46:45.286Z,1013.43
2023-12-07T02:47:45.318Z,1013.47
2023-12-07T02:48:45.348Z,1013.46
2023-12-07T02:49:45.386Z,1013.49
2023-12-07T02:50:45.377Z,1013.49
2023-12-07T02:51:45.480Z,1013.45
2023-12-07T02:52:45.449Z,1013.48
2023-12-07T02:53:45.495Z,1013.50
2023-12-07T02:54:45.482Z,1013.47
2023-12-07T02:55:45.525Z,1013.46
2023-12-07T02:56:45.527Z,1013.48
2023-12-07T02:57:45.602Z,1013.49
2023-12-07T02:58:45.575Z,1013.48
2023-12-07T02:59:45.654Z,1013.53
2023-12-07T03:00:45.642Z,1013.53
2023-12-07T03:01:45.661Z,1013.50
2023-12-07T03:02:45.685Z,1013.54
2023-12-07T03:03:45.713Z,1013.59
2023-12-07T03:04:45.740Z,1013.58
2023-12-07T03:05:45.798Z,1013.61
2023-12-07T03:06:45.793Z,1013.61
2023-12-07T03:07:45.805Z,1013.64
2023-12-07T03:08:45.829Z,1013.59
2023-12-07T03:09:45.851Z,1013.62
2023-12-07T03:10:45.880Z,1013.65
2023-12-07T03:11:45.904Z,1013.61
2023-12-07T03:12:45.926Z,1013.57
2023-12-07T03:13:45.958Z,1013.59
2023-12-07T03:14:45.999Z,1013.64
2023-12-07T03:15:46.003Z,1013.63
2023-12-07T03:16:46.025Z,1013.63
2023-12-07T03:17:46.091Z,1013.69
2023-12-07T03:18:46.099Z,1013.67
2023-12-07T03:19:46.150Z,1013.68
2023-12-07T03:20:46.133Z,1013.69
2023-12-07T03:21:46.152Z,1013.67
2023-12-07T03:22:46.234Z,1013.71
2023-12-07T03:23:46.199Z,1013.69
2023-12-07T03:24:46.224Z,1013.70
2023-12-07T03:25:46.246Z,1013.72
2023-12-07T03:26:46.275Z,1013.70
2023-12-07T03:27:46.314Z,1013.70
2023-12-07T03:28:46.324Z,1013.72
2023-12-07T03:29:46.353Z,1013.73
2023-12-07T03:30:46.389Z,1013.76
2023-12-07T03:31:46.400Z,1013.73
2023-12-07T03:32:46.509Z,1013.76
2023-12-07T03:33:46.515Z,1013.78
2023-12-07T03:34:46.539Z,1013.78
2023-12-07T03:35:46.499Z,1013.76
2023-12-07T03:36:46.528Z,1013.79
2023-12-07T03:37:46.556Z,1013.78
2023-12-07T03:38:46.614Z,1013.80
2023-12-07T03:39:46.618Z,1013.84
2023-12-07T03:40:46.624Z,1013.81
2023-12-07T03:41:46.654Z,1013.82
2023-12-07T03:42:51.765Z,1013.83
2023-12-07T03:43:46.779Z,1013.84
2023-12-07T03:44:46.732Z,1013.84
2023-12-07T03:45:46.767Z,1013.87
2023-12-07T03:46:46.775Z,1013.88
2023-12-07T03:47:46.812Z,1013.89
2023-12-07T03:48:46.870Z,1013.88
2023-12-07T03:49:46.872Z,1013.90
2023-12-07T03:50:46.877Z,1013.93
2023-12-07T03:51:46.899Z,1013.90
2023-12-07T03:52:46.953Z,1013.92
2023-12-07T03:53:46.956Z,1013.93
2023-12-07T03:54:46.973Z,1013.93
2023-12-07T03:55:47.009Z,1013.91
2023-12-07T03:56:47.023Z,1013.90
2023-12-07T03:57:47.060Z,1013.89
2023-12-07T03:58:47.078Z,1013.86
2023-12-07T03:59:47.118Z,1013.85
2023-12-07T04:00:47.155Z,1013.84
2023-12-07T04:01:47.194Z,1013.85
2023-12-07T04:02:47.246Z,1013.85
2023-12-07T04:03:47.202Z,1013.86
2023-12-07T04:04:47.231Z,1013.89
2023-12-07T04:05:47.266Z,1013.85
2023-12-07T04:06:47.272Z,1013.85
2023-12-07T04:07:47.303Z,1013.86
2023-12-07T04:08:47.337Z,1013.84
2023-12-07T04:09:47.353Z,1013.80
2023-12-07T04:10:47.384Z,1013.85
2023-12-07T04:11:47.401Z,1013.88
2023-12-07T04:12:47.429Z,1013.85
2023-12-07T04:13:47.447Z,1013.85
2023-12-07T04:14:47.473Z,1013.86
2023-12-07T04:15:47.535Z,1013.84
2023-12-07T04:16:47.525Z,1013.90
2023-12-07T04:17:47.603Z,1013.90
2023-12-07T04:18:47.673Z,1013.90
2023-12-07T04:19:47.644Z,1013.90
2023-12-07T04:20:47.638Z,1013.92
2023-12-07T04:21:47.648Z,1013.93
2023-12-07T04:22:47.764Z,1013.94
2023-12-07T04:23:47.701Z,1013.95
2023-12-07T04:24:47.731Z,1013.93
2023-12-07T04:25:47.761Z,1013.94
2023-12-07T04:26:47.780Z,1013.99
2023-12-07T04:27:47.831Z,1013.99
2023-12-07T04:28:47.831Z,1013.97
2023-12-07T04:29:47.860Z,1013.99
2023-12-07T04:30:47.875Z,1014.01
2023-12-07T04:31:47.913Z,1014.04
2023-12-07T04:32:48.001Z,1014.04
2023-12-07T04:33:47.997Z,1014.10
2023-12-07T04:34:48.039Z,1014.12
2023-12-07T04:35:48.005Z,1014.10
2023-12-07T04:36:48.036Z,1014.15
2023-12-07T04:37:48.061Z,1014.13
2023-12-07T04:38:48.084Z,1014.17
2023-12-07T04:39:48.113Z,1014.15
2023-12-07T04:40:48.132Z,1014.17
2023-12-07T04:41:48.168Z,1014.21
2023-12-07T04:42:48.182Z,1014.21
2023-12-07T04:43:48.213Z,1014.22
2023-12-07T04:44:48.230Z,1014.26
2023-12-07T04:45:48.260Z,1014.26
2023-12-07T04:46:48.315Z,1014.24
2023-12-07T04:47:48.357Z,1014.27
2023-12-07T04:48:48.396Z,1014.29
2023-12-07T04:49:48.426Z,1014.36
2023-12-07T04:50:48.382Z,1014.37
2023-12-07T04:51:48.417Z,1014.36
2023-12-07T04:52:48.469Z,1014.33
2023-12-07T04:53:48.464Z,1014.32
2023-12-07T04:54:48.493Z,1014.34
2023-12-07T04:55:48.524Z,1014.33
2023-12-07T04:56:48.552Z,1014.34
2023-12-07T04:57:48.559Z,1014.33
2023-12-07T04:58:48.601Z,1014.34
2023-12-07T04:59:48.749Z,1014.34
2023-12-07T05:00:48.686Z,1014.33
2023-12-07T05:01:48.720Z,1014.33
2023-12-07T05:02:48.707Z,1014.36
2023-12-07T05:03:48.711Z,1014.35
2023-12-07T05:04:48.761Z,1014.32
2023-12-07T05:05:48.823Z,1014.29
2023-12-07T05:06:48.791Z,1014.33
2023-12-07T05:07:48.820Z,1014.32
2023-12-07T05:08:48.854Z,1014.33
2023-12-07T05:09:48.891Z,1014.34
2023-12-07T05:10:48.920Z,1014.35
2023-12-07T05:11:48.919Z,1014.35
2023-12-07T05:12:48.936Z,1014.35
2023-12-07T05:13:48.977Z,1014.35
2023-12-07T05:14:48.996Z,1014.37
2023-12-07T05:15:49.010Z,1014.36
2023-12-07T05:16:49.178Z,1014.32
2023-12-07T05:17:49.119Z,1014.33
2023-12-07T05:18:49.103Z,1014.34
2023-12-07T05:19:49.215Z,1014.34
2023-12-07T05:20:49.136Z,1014.36
2023-12-07T05:21:49.165Z,1014.35
2023-12-07T05:22:49.243Z,1014.36
2023-12-07T05:23:49.217Z,1014.38
2023-12-07T05:24:49.257Z,1014.37
2023-12-07T05:25:49.268Z,1014.35
2023-12-07T05:26:49.289Z,1014.36
2023-12-07T05:27:49.323Z,1014.40
2023-12-07T05:28:49.344Z,1014.44
2023-12-07T05:29:49.370Z,1014.42
2023-12-07T05:30:49.395Z,1014.43
2023-12-07T05:31:49.417Z,1014.44
2023-12-07T05:32:49.621Z,1014.43
2023-12-07T05:33:49.550Z,1014.45
2023-12-07T05:34:49.558Z,1014.47
2023-12-07T05:35:49.536Z,1014.47
2023-12-07T05:36:49.561Z,1014.47
2023-12-07T05:37:49.565Z,1014.47
2023-12-07T05:38:49.588Z,1014.44
2023-12-07T05:39:49.617Z,1014.44
2023-12-07T05:40:49.639Z,1014.43
2023-12-07T05:41:49.666Z,1014.42
2023-12-07T05:42:49.694Z,1014.41
2023-12-07T05:43:49.762Z,1014.41
2023-12-07T05:44:49.735Z,1014.42
2023-12-07T05:45:49.765Z,1014.37
2023-12-07T05:46:49.795Z,1014.40
2023-12-07T05:47:49.881Z,1014.42
2023-12-07T05:48:50.210Z,1014.41
2023-12-07T05:49:49.927Z,1014.43
2023-12-07T05:50:49.890Z,1014.42
2023-12-07T05:51:49.962Z,1014.43
2023-12-07T05:52:49.947Z,1014.40
2023-12-07T05:53:49.963Z,1014.45
2023-12-07T05:54:49.989Z,1014.41
2023-12-07T05:55:50.054Z,1014.42
2023-12-07T05:56:50.045Z,1014.43
2023-12-07T05:57:50.065Z,1014.40
2023-12-07T05:58:50.098Z,1014.43
2023-12-07T05:59:50.118Z,1014.39
2023-12-07T06:00:50.168Z,1014.41
2023-12-07T06:01:50.185Z,1014.42
2023-12-07T06:02:50.210Z,1014.45
2023-12-07T06:03:50.213Z,1014.42
2023-12-07T06:04:50.247Z,1014.46
2023-12-07T06:05:50.318Z,1014.50
2023-12-07T06:06:50.294Z,1014.52
2023-12-07T06:07:50.324Z,1014.55
2023-12-07T06:08:50.351Z,1014.56
2023-12-07T06:09:50.370Z,1014.59
2023-12-07T06:10:50.421Z,1014.61
2023-12-07T06:11:50.426Z,1014.66
2023-12-07T06:12:50.448Z,1014.63
2023-12-07T06:13:50.490Z,1014.63
2023-12-07T06:14:50.490Z,1014.65
2023-12-07T06:15:50.518Z,1014.65
2023-12-07T06:16:50.558Z,1014.68
2023-12-07T06:17:50.677Z,1014.67
2023-12-07T06:18:50.665Z,1014.64
2023-12-07T06:19:50.699Z,1014.67
2023-12-07T06:20:50.645Z,1014.65
2023-12-07T06:21:50.676Z,1014.65
2023-12-07T06:22:50.731Z,1014.63
2023-12-07T06:23:50.741Z,1014.69
2023-12-07T06:24:50.744Z,1014.67
2023-12-07T06:25:50.779Z,1014.72
2023-12-07T06:26:50.795Z,1014.70
2023-12-07T06:27:50.821Z,1014.73
2023-12-07T06:28:50.855Z,1014.76
2023-12-07T06:29:50.873Z,1014.72
2023-12-07T06:30:50.899Z,1014.75
2023-12-07T06:31:50.922Z,1014.79
2023-12-07T06:32:50.967Z,1014.83
2023-12-07T06:33:51.023Z,1014.83
2023-12-07T06:34:51.013Z,1014.89
2023-12-07T06:35:51.027Z,1014.87
2023-12-07T06:36:51.048Z,1014.91
2023-12-07T06:37:51.073Z,1014.94
2023-12-07T06:38:51.103Z,1014.95
2023-12-07T06:39:51.133Z,1014.97
2023-12-07T06:40:51.161Z,1014.97
2023-12-07T06:41:51.175Z,1015.00
2023-12-07T06:42:51.201Z,1014.97
2023-12-07T06:43:51.223Z,1014.96
2023-12-07T06:44:51.250Z,1015.05
2023-12-07T06:45:51.279Z,1015.04
2023-12-07T06:46:51.302Z,1015.04
2023-12-07T06:47:51.357Z,1015.02
2023-12-07T06:48:51.384Z,1015.04
2023-12-07T06:49:53.219Z,1015.07
2023-12-07T06:50:51.410Z,1015.06
2023-12-07T06:51:51.431Z,1015.09
2023-12-07T06:52:51.453Z,1015.11
2023-12-07T06:53:51.479Z,1015.13
2023-12-07T06:54:51.511Z,1015.08
2023-12-07T06:55:51.581Z,1015.08
2023-12-07T06:56:51.552Z,1015.07
2023-12-07T06:57:51.582Z,1015.08
2023-12-07T06:58:51.606Z,1015.07
2023-12-07T06:59:51.629Z,1015.06
2023-12-07T07:00:51.711Z,1015.06
2023-12-07T07:01:51.703Z,1015.06
2023-12-07T07:02:51.705Z,1015.10
2023-12-07T07:03:51.741Z,1015.08
2023-12-07T07:04:51.917Z,1015.10
2023-12-07T07:05:51.846Z,1015.07
2023-12-07T07:06:51.802Z,1015.08
2023-12-07T07:07:51.843Z,1015.09
2023-12-07T07:08:51.855Z,1015.06
2023-12-07T07:09:51.887Z,1015.04
2023-12-07T07:10:51.937Z,1015.08
2023-12-07T07:11:52.006Z,1015.08
2023-12-07T07:12:51.961Z,1015.08
2023-12-07T07:13:51.982Z,1015.10
2023-12-07T07:14:52.027Z,1015.08
2023-12-07T07:15:52.032Z,1015.13
2023-12-07T07:16:52.102Z,1015.17
2023-12-07T07:17:52.108Z,1015.17
2023-12-07T07:18:52.147Z,1015.17
2023-12-07T07:19:52.226Z,1015.19
2023-12-07T07:20:52.172Z,1015.18
2023-12-07T07:21:52.190Z,1015.21
2023-12-07T07:22:52.209Z,1015.16
2023-12-07T07:23:52.242Z,1015.19
2023-12-07T07:24:52.277Z,1015.24
2023-12-07T07:25:52.355Z,1015.21
2023-12-07T07:26:52.311Z,1015.22
2023-12-07T07:27:52.340Z,1015.23
2023-12-07T07:28:52.363Z,1015.22
2023-12-07T07:29:52.395Z,1015.23
2023-12-07T07:30:52.420Z,1015.21
2023-12-07T07:31:52.441Z,1015.21
2023-12-07T07:32:52.581Z,1015.21
2023-12-07T07:34:00.258Z,1015.24
2023-12-07T07:34:52.628Z,1015.23
2023-12-07T07:35:55.058Z,1015.24
2023-12-07T07:36:52.571Z,1015.20
2023-12-07T07:37:52.647Z,1015.21
2023-12-07T07:38:52.615Z,1015.18
2023-12-07T07:39:52.647Z,1015.18
2023-12-07T07:40:52.666Z,1015.16
2023-12-07T07:41:52.694Z,1015.15
2023-12-07T07:42:52.721Z,1015.20
2023-12-07T07:43:52.743Z,1015.22
2023-12-07T07:44:52.775Z,1015.26
2023-12-07T07:45:52.799Z,1015.25
2023-12-07T07:46:52.816Z,1015.25
2023-12-07T07:47:52.864Z,1015.26
2023-12-07T07:48:53.011Z,1015.27
2023-12-07T07:49:52.929Z,1015.26
2023-12-07T07:50:52.920Z,1015.28
2023-12-07T07:51:52.939Z,1015.26
2023-12-07T07:52:52.969Z,1015.28
2023-12-07T07:53:52.998Z,1015.24
2023-12-07T07:54:53.021Z,1015.25
2023-12-07T07:55:53.047Z,1015.25
2023-12-07T07:56:53.068Z,1015.27
2023-12-07T07:57:53.094Z,1015.26
2023-12-07T07:58:53.129Z,1015.21
2023-12-07T07:59:53.154Z,1015.26
2023-12-07T08:00:53.280Z,1015.23
2023-12-07T08:01:53.262Z,1015.21
2023-12-07T08:02:53.231Z,1015.23
2023-12-07T08:03:53.245Z,1015.25
2023-12-07T08:04:53.268Z,1015.27
2023-12-07T08:05:53.353Z,1015.31
2023-12-07T08:06:53.440Z,1015.26
2023-12-07T08:07:53.361Z,1015.26
2023-12-07T08:08:53.370Z,1015.26
2023-12-07T08:09:53.415Z,1015.24
2023-12-07T08:10:56.106Z,1015.23
2023-12-07T08:11:53.476Z,1015.23
2023-12-07T08:12:53.473Z,1015.18
2023-12-07T08:13:53.501Z,1015.17
2023-12-07T08:14:53.556Z,1015.26
2023-12-07T08:15:56.819Z,1015.28
2023-12-07T08:16:53.580Z,1015.31
2023-12-07T08:17:53.655Z,1015.34
2023-12-07T08:18:53.654Z,1015.37
2023-12-07T08:19:53.691Z,1015.41
2023-12-07T08:20:53.682Z,1015.42
2023-12-07T08:21:53.733Z,1015.44
2023-12-07T08:22:53.730Z,1015.45
2023-12-07T08:23:53.749Z,1015.45
2023-12-07T08:25:01.073Z,1015.48
2023-12-07T08:25:53.877Z,1015.47
2023-12-07T08:26:53.837Z,1015.49
2023-12-07T08:27:53.853Z,1015.51
2023-12-07T08:28:53.886Z,1015.54
2023-12-07T08:29:53.903Z,1015.52
2023-12-07T08:30:53.931Z,1015.56
2023-12-07T08:31:53.953Z,1015.58
2023-12-07T08:32:54.031Z,1015.59
2023-12-07T08:33:54.280Z,1015.56
2023-12-07T08:34:54.052Z,1015.54
2023-12-07T08:35:54.055Z,1015.55
2023-12-07T08:36:54.084Z,1015.55
2023-12-07T08:37:54.129Z,1015.57
2023-12-07T08:38:54.130Z,1015.52
2023-12-07T08:39:54.170Z,1015.52
2023-12-07T08:40:54.255Z,1015.53
2023-12-07T08:41:54.211Z,1015.53
2023-12-07T08:42:54.232Z,1015.54
2023-12-07T08:43:54.258Z,1015.56
2023-12-07T08:44:54.283Z,1015.58
2023-12-07T08:46:00.976Z,1015.57
2023-12-07T08:46:54.331Z,1015.60
2023-12-07T08:47:54.443Z,1015.59
2023-12-07T08:48:54.425Z,1015.60
2023-12-07T08:49:54.454Z,1015.61
2023-12-07T08:50:54.439Z,1015.59
2023-12-07T08:52:09.479Z,1015.58
2023-12-07T08:52:59.815Z,1015.63
2023-12-07T08:53:55.512Z,1015.63
2023-12-07T08:54:54.534Z,1015.62
2023-12-07T08:55:54.638Z,1015.64
2023-12-07T08:56:54.597Z,1015.61
2023-12-07T08:57:54.616Z,1015.63
2023-12-07T08:58:54.647Z,1015.63
2023-12-07T08:59:54.661Z,1015.61
2023-12-07T09:00:54.739Z,1015.61
2023-12-07T09:01:54.795Z,1015.61
2023-12-07T09:02:54.788Z,1015.61
2023-12-07T09:03:54.807Z,1015.63
2023-12-07T09:04:54.850Z,1015.65
2023-12-07T09:05:54.870Z,1015.62
2023-12-07T09:06:54.927Z,1015.64
2023-12-07T09:07:54.949Z,1015.64
2023-12-07T09:08:54.884Z,1015.67
2023-12-07T09:09:54.911Z,1015.65
2023-12-07T09:10:54.947Z,1015.65
2023-12-07T09:11:54.961Z,1015.68
2023-12-07T09:12:54.991Z,1015.65
2023-12-07T09:13:55.027Z,1015.68
2023-12-07T09:14:55.041Z,1015.67
2023-12-07T09:15:55.125Z,1015.69
2023-12-07T09:16:55.101Z,1015.67
2023-12-07T09:17:55.138Z,1015.73
2023-12-07T09:18:55.167Z,1015.73
2023-12-07T09:19:55.175Z,1015.67
2023-12-07T09:20:55.188Z,1015.69
2023-12-07T09:21:55.225Z,1015.72
2023-12-07T09:22:55.306Z,1015.74
2023-12-07T09:23:55.265Z,1015.74
2023-12-07T09:24:55.300Z,1015.74
2023-12-07T09:25:55.328Z,1015.79
2023-12-07T09:26:55.369Z,1015.79
2023-12-07T09:27:55.373Z,1015.81
2023-12-07T09:28:55.429Z,1015.79
2023-12-07T09:29:55.430Z,1015.77
2023-12-07T09:30:55.455Z,1015.74
2023-12-07T09:31:55.552Z,1015.75
2023-12-07T09:32:55.644Z,1015.75
2023-12-07T09:33:55.720Z,1015.75
2023-12-07T09:34:55.636Z,1015.78
2023-12-07T09:35:55.590Z,1015.76
2023-12-07T09:36:55.596Z,1015.75
2023-12-07T09:37:55.625Z,1015.76
2023-12-07T09:38:55.664Z,1015.75
2023-12-07T09:39:55.669Z,1015.72
2023-12-07T09:40:55.719Z,1015.75
2023-12-07T09:41:55.725Z,1015.73
2023-12-07T09:42:55.746Z,1015.73
2023-12-07T09:43:55.783Z,1015.74
2023-12-07T09:44:55.815Z,1015.76
2023-12-07T09:45:55.822Z,1015.78
2023-12-07T09:46:55.947Z,1015.80
2023-12-07T09:47:55.961Z,1015.85
2023-12-07T09:48:55.909Z,1015.86
2023-12-07T09:49:55.949Z,1015.90
2023-12-07T09:50:55.953Z,1015.89
2023-12-07T09:51:55.990Z,1015.91
2023-12-07T09:53:04.362Z,1015.93
2023-12-07T09:53:56.218Z,1015.91
2023-12-07T09:54:56.055Z,1015.92
2023-12-07T09:55:56.122Z,1015.96
2023-12-07T09:56:56.102Z,1015.96
2023-12-07T09:57:56.127Z,1015.97
2023-12-07T09:58:56.182Z,1015.94
2023-12-07T09:59:56.184Z,1015.94
2023-12-07T10:00:56.223Z,1015.90
2023-12-07T10:01:56.254Z,1015.91
2023-12-07T10:02:56.286Z,1015.91
2023-12-07T10:03:56.321Z,1015.92
2023-12-07T10:04:56.424Z,1015.91
2023-12-07T10:05:56.333Z,1015.91
2023-12-07T10:06:56.367Z,1015.90
2023-12-07T10:07:56.388Z,1015.91
2023-12-07T10:08:56.406Z,1015.90
2023-12-07T10:09:56.430Z,1015.90
2023-12-07T10:10:56.461Z,1015.90
2023-12-07T10:11:56.481Z,1015.92
2023-12-07T10:12:56.597Z,1015.89
2023-12-07T10:13:56.656Z,1015.89
2023-12-07T10:14:56.557Z,1015.90
2023-12-07T10:15:56.585Z,1015.92
2023-12-07T10:16:56.647Z,1015.90
2023-12-07T10:17:56.698Z,1015.87
2023-12-07T10:18:56.780Z,1015.85
2023-12-07T10:19:56.704Z,1015.83
2023-12-07T10:20:56.712Z,1015.84
2023-12-07T10:21:56.739Z,1015.77
2023-12-07T10:22:56.761Z,1015.75
2023-12-07T10:23:56.789Z,1015.75
2023-12-07T10:24:56.811Z,1015.77
2023-12-07T10:25:56.890Z,1015.74
2023-12-07T10:27:03.243Z,1015.69
2023-12-07T10:27:56.888Z,1015.71
2023-12-07T10:28:56.911Z,1015.72
2023-12-07T10:29:56.965Z,1015.75
2023-12-07T10:30:56.962Z,1015.77
2023-12-07T10:31:56.992Z,1015.76
2023-12-07T10:32:57.146Z,1015.82
2023-12-07T10:33:57.158Z,1015.84
2023-12-07T10:34:57.069Z,1015.85
2023-12-07T10:35:57.110Z,1015.84
2023-12-07T10:36:57.163Z,1015.84
2023-12-07T10:37:57.139Z,1015.79
2023-12-07T10:38:57.162Z,1015.81
2023-12-07T10:39:57.195Z,1015.81
2023-12-07T10:40:57.217Z,1015.82
2023-12-07T10:41:57.248Z,1015.80
2023-12-07T10:42:57.280Z,1015.79
2023-12-07T10:43:57.295Z,1015.81
2023-12-07T10:44:57.322Z,1015.80
2023-12-07T10:45:57.353Z,1015.82
2023-12-07T10:46:57.372Z,1015.79
2023-12-07T10:47:57.426Z,1015.73
2023-12-07T10:48:57.540Z,1015.71
2023-12-07T10:49:57.566Z,1015.75
2023-12-07T10:50:57.494Z,1015.73
2023-12-07T10:51:57.500Z,1015.82
2023-12-07T10:52:57.544Z,1015.77
2023-12-07T10:53:57.557Z,1015.79
2023-12-07T10:54:57.722Z,1015.76
2023-12-07T10:55:57.604Z,1015.78
2023-12-07T10:56:57.628Z,1015.78
2023-12-07T10:57:57.663Z,1015.77
2023-12-07T10:58:57.694Z,1015.76
2023-12-07T10:59:57.711Z,1015.73
2023-12-07T11:00:57.849Z,1015.72
2023-12-07T11:01:57.953Z,1015.72
2023-12-07T11:02:57.904Z,1015.70
2023-12-07T11:03:57.873Z,1015.75
2023-12-07T11:04:57.907Z,1015.74
2023-12-07T11:05:57.885Z,1015.72
2023-12-07T11:06:57.883Z,1015.72
2023-12-07T11:07:57.911Z,1015.70
2023-12-07T11:08:57.937Z,1015.68
2023-12-07T11:09:57.961Z,1015.66
2023-12-07T11:10:57.993Z,1015.66
2023-12-07T11:11:58.035Z,1015.64
2023-12-07T11:12:58.037Z,1015.74
2023-12-07T11:13:59.066Z,1015.63
2023-12-07T11:14:58.148Z,1015.65
2023-12-07T11:15:58.119Z,1015.65
2023-12-07T11:16:58.238Z,1015.65
2023-12-07T11:17:58.244Z,1015.65
2023-12-07T11:18:58.220Z,1015.69
2023-12-07T11:19:58.285Z,1015.65
2023-12-07T11:20:58.243Z,1015.64
2023-12-07T11:21:58.272Z,1015.62
2023-12-07T11:22:58.323Z,1015.59
2023-12-07T11:23:58.325Z,1015.55
2023-12-07T11:24:58.350Z,1015.51
2023-12-07T11:25:58.498Z,1015.50
2023-12-07T11:26:58.398Z,1015.52
2023-12-07T11:27:58.425Z,1015.48
2023-12-07T11:28:58.466Z,1015.49
2023-12-07T11:29:58.472Z,1015.49
2023-12-07T11:30:58.502Z,1015.51
2023-12-07T11:31:58.528Z,1015.51
2023-12-07T11:32:58.623Z,1015.55
2023-12-07T11:33:58.589Z,1015.50
2023-12-07T11:34:58.604Z,1015.54
2023-12-07T11:35:58.626Z,1015.54
2023-12-07T11:36:58.660Z,1015.51
2023-12-07T11:37:58.681Z,1015.50
2023-12-07T11:38:58.707Z,1015.51
2023-12-07T11:39:58.732Z,1015.50
2023-12-07T11:40:58.754Z,1015.44
2023-12-07T11:41:58.780Z,1015.47
2023-12-07T11:42:58.806Z,1015.42
2023-12-07T11:43:58.837Z,1015.45
2023-12-07T11:44:58.857Z,1015.48
2023-12-07T11:45:58.892Z,1015.49
2023-12-07T11:46:58.919Z,1015.51
2023-12-07T11:47:58.983Z,1015.53
2023-12-07T11:48:59.016Z,1015.51
2023-12-07T11:49:59.072Z,1015.52
2023-12-07T11:50:59.010Z,1015.50
2023-12-07T11:51:59.039Z,1015.52
2023-12-07T11:52:59.064Z,1015.50
2023-12-07T11:53:59.091Z,1015.53
2023-12-07T11:54:59.127Z,1015.54
2023-12-07T11:55:59.139Z,1015.54
2023-12-07T11:56:59.177Z,1015.58
2023-12-07T11:57:59.190Z,1015.55
2023-12-07T11:58:59.261Z,1015.60
2023-12-07T11:59:59.259Z,1015.54
2023-12-07T12:00:59.299Z,1015.57
2023-12-07T12:01:59.377Z,1015.59
2023-12-07T12:02:59.318Z,1015.59
2023-12-07T12:04:00.924Z,1015.56
2023-12-07T12:04:59.447Z,1015.54
2023-12-07T12:05:59.466Z,1015.50